Time;durP1;ratioP1;P1;durP2;ratioP2;P2;SDS_P1;SDS_P2;PMS_P1;PMS_P2;Temp;Humidity;BMP_temperature;BMP_pressure;BME280_temperature;BME280_humidity;BME280_pressure;Samples;Min_cycle;Max_cycle;Signal;HPM_P1;HPM_P2
2023/10/13 00:02:02;;;;;;;4.28;2.20;;;;;;;-145.63;56.68;39434.94;5044749;28;20029;-65
2023/10/13 00:04:35;;;;;;;6.90;3.83;;;;;;;-145.63;56.57;39343.03;5045036;28;20093;-65
2023/10/13 00:07:02;;;;;;;4.47;2.00;;;;;;;-145.63;56.42;39370.41;5043653;28;20076;-66
2023/10/13 00:09:32;;;;;;;4.75;1.80;;;;;;;-145.63;56.71;39393.88;5043523;28;20037;-65
2023/10/13 00:12:03;;;;;;;7.03;2.05;;;;;;;-145.63;56.34;39360.63;5044399;28;20017;-66
2023/10/13 00:14:35;;;;;;;6.60;2.15;;;;;;;-145.63;56.20;39360.63;5043708;28;20254;-66
2023/10/13 00:17:15;;;;;;;6.18;1.77;;;;;;;-145.63;56.23;39354.75;5044739;28;20025;-66
2023/10/13 00:19:51;;;;;;;5.65;1.73;;;;;;;-145.63;56.43;39366.50;5044559;28;20332;-65
2023/10/13 00:22:19;;;;;;;4.80;1.85;;;;;;;-145.63;56.00;39364.53;5043916;28;20391;-65
2023/10/13 00:24:46;;;;;;;4.70;1.48;;;;;;;-145.63;56.27;39352.81;5044524;28;20029;-66
2023/10/13 00:32:46;;;;;;;4.57;1.80;;;;;;;-145.63;55.66;39358.66;5044373;28;20241;-64
2023/10/13 00:35:24;;;;;;;5.68;1.40;;;;;;;-145.63;55.23;39352.81;5044526;28;20063;-65
2023/10/13 00:37:53;;;;;;;2.55;1.30;;;;;;;-145.63;54.92;39343.03;5044409;28;20029;-66
2023/10/13 00:48:34;;;;;;;6.78;1.88;;;;;;;-145.63;54.44;39423.22;5044030;28;20021;-65
2023/10/13 00:51:07;;;;;;;4.47;1.42;;;;;;;-145.63;54.56;39362.59;5044369;28;20086;-65
2023/10/13 00:53:37;;;;;;;5.70;1.80;;;;;;;-145.63;54.55;39333.25;5044057;28;20270;-66
2023/10/13 00:56:18;;;;;;;3.83;1.60;;;;;;;-145.63;53.92;39352.81;5044098;28;20025;-65
2023/10/13 00:58:50;;;;;;;3.97;1.48;;;;;;;-145.63;53.85;39343.03;5043939;28;20025;-65
2023/10/13 01:01:21;;;;;;;4.28;1.58;;;;;;;-145.63;53.75;39341.06;5044066;28;20067;-66
2023/10/13 01:03:59;;;;;;;4.15;1.45;;;;;;;-145.63;53.59;39438.84;5059312;28;20021;-65
2023/10/13 01:06:27;;;;;;;3.53;1.50;;;;;;;-145.63;53.15;39374.31;5044025;28;20135;-66
2023/10/13 01:09:10;;;;;;;5.78;1.70;;;;;;;-145.63;53.25;39409.53;5043984;28;20278;-67
2023/10/13 01:11:38;;;;;;;6.68;1.73;;;;;;;-145.63;53.10;39321.50;5043908;28;20080;-66
2023/10/13 01:14:05;;;;;;;3.20;1.40;;;;;;;-145.63;53.29;39368.44;5043676;28;20029;-67
2023/10/13 01:16:31;;;;;;;4.72;1.23;;;;;;;-145.63;53.07;39364.53;5043768;28;20205;-67
2023/10/13 01:18:59;;;;;;;5.90;1.30;;;;;;;-145.63;52.82;39360.63;5043989;28;20025;-65
2023/10/13 01:21:27;;;;;;;4.93;1.60;;;;;;;-145.63;52.82;39376.28;5042202;28;20025;-66
2023/10/13 01:23:53;;;;;;;4.95;1.48;;;;;;;-145.63;52.94;39356.72;5043596;28;20301;-66
2023/10/13 01:26:26;;;;;;;5.22;1.80;;;;;;;-145.63;52.75;39372.34;5043687;28;20026;-65
2023/10/13 01:28:56;;;;;;;6.05;1.30;;;;;;;-145.63;52.69;39374.31;5043590;28;20076;-64
2023/10/13 01:31:27;;;;;;;4.22;1.80;;;;;;;-145.63;52.33;39368.44;5043621;28;20045;-64
2023/10/13 01:33:54;;;;;;;5.03;1.48;;;;;;;-145.63;52.63;39411.47;5043565;28;20031;-65
2023/10/13 01:36:23;;;;;;;5.82;1.48;;;;;;;-145.63;52.53;39276.53;5043568;28;20026;-65
2023/10/13 01:38:53;;;;;;;6.85;1.80;;;;;;;-145.63;52.33;39374.31;5043625;28;20031;-66
2023/10/13 01:41:20;;;;;;;3.83;1.90;;;;;;;-145.63;52.21;39329.34;5043418;28;20104;-67
2023/10/13 01:43:46;;;;;;;5.55;1.63;;;;;;;-145.63;52.34;39344.97;5043281;28;20048;-67
2023/10/13 01:46:21;;;;;;;5.22;1.90;;;;;;;-145.63;52.69;39319.56;5043305;28;20325;-67
2023/10/13 01:48:47;;;;;;;10.20;2.10;;;;;;;-145.63;52.42;39356.72;5043216;28;20087;-67
2023/10/13 01:51:14;;;;;;;8.23;1.90;;;;;;;-145.63;52.49;39395.84;5041662;28;20025;-67
2023/10/13 01:53:43;;;;;;;5.30;1.70;;;;;;;-145.63;52.08;39348.88;5043381;28;20036;-68
2023/10/13 01:56:12;;;;;;;3.60;1.50;;;;;;;-145.63;52.85;39358.66;5043316;28;20025;-66
2023/10/13 01:58:42;;;;;;;7.88;1.90;;;;;;;-145.63;52.88;39329.34;5043161;28;20052;-66
2023/10/13 02:01:11;;;;;;;6.35;1.90;;;;;;;-145.63;52.97;39321.50;5058502;28;20032;-66
2023/10/13 02:03:46;;;;;;;12.88;1.90;;;;;;;-145.63;52.91;39301.94;5043111;28;20063;-66
2023/10/13 02:06:17;;;;;;;12.05;1.92;;;;;;;-145.63;52.68;39376.28;5041916;28;20029;-65
2023/10/13 02:08:43;;;;;;;4.95;1.65;;;;;;;-145.63;52.81;39329.34;5043022;28;20097;-66
2023/10/13 02:11:09;;;;;;;5.22;1.70;;;;;;;-145.63;52.57;39356.72;5043065;28;20312;-66
2023/10/13 02:13:41;;;;;;;4.65;1.65;;;;;;;-145.63;52.58;39337.16;5043256;28;20093;-67
2023/10/13 02:16:07;;;;;;;6.93;1.63;;;;;;;-145.63;52.73;39407.56;5043163;28;20044;-66
2023/10/13 02:18:43;;;;;;;6.18;1.98;;;;;;;-145.63;52.88;39374.31;5041696;28;20029;-66
2023/10/13 02:21:15;;;;;;;4.95;1.70;;;;;;;-145.63;51.97;39358.66;5042746;28;20017;-66
2023/10/13 02:23:45;;;;;;;5.25;1.75;;;;;;;-145.63;52.01;39247.19;5043046;28;20092;-66
2023/10/13 02:26:16;;;;;;;6.80;1.65;;;;;;;-145.63;52.33;39348.88;5042939;28;20030;-67
2023/10/13 02:28:50;;;;;;;2.33;1.57;;;;;;;-145.63;52.06;39352.81;5058160;28;20103;-66
2023/10/13 02:31:17;;;;;;;8.38;1.67;;;;;;;-145.63;52.44;39388.00;5042943;28;20077;-68
2023/10/13 02:33:44;;;;;;;7.80;1.77;;;;;;;-145.63;52.42;39339.13;5045763;28;20041;-67
2023/10/13 02:36:12;;;;;;;4.43;1.55;;;;;;;-145.63;51.56;39380.19;5046773;28;20021;-66
2023/10/13 02:41:09;;;;;;;7.70;1.92;;;;;;;-145.63;51.47;39362.59;5046651;28;20062;-66
2023/10/13 02:43:36;;;;;;;6.03;1.88;;;;;;;-145.63;51.64;39366.50;5046684;28;20071;-65
2023/10/13 02:46:02;;;;;;;6.05;2.45;;;;;;;-145.63;51.63;39364.53;5046527;28;20217;-64
2023/10/13 02:48:42;;;;;;;5.80;1.77;;;;;;;-145.63;51.06;39360.63;5046345;28;20359;-66
2023/10/13 02:51:18;;;;;;;5.28;1.83;;;;;;;-145.63;51.60;39370.41;5046755;28;20029;-67
2023/10/13 02:53:50;;;;;;;5.18;1.85;;;;;;;-145.63;51.15;39364.53;5046437;28;20324;-66
2023/10/13 02:56:22;;;;;;;4.88;1.63;;;;;;;-145.63;51.22;39358.66;5046388;28;20351;-67
2023/10/13 02:58:53;;;;;;;5.95;1.60;;;;;;;-145.63;51.41;39374.31;5061407;28;20305;-68
2023/10/13 03:01:20;;;;;;;6.65;1.90;;;;;;;-145.63;51.26;39360.63;5046244;28;20097;-67
2023/10/13 03:03:51;;;;;;;3.85;1.70;;;;;;;-145.63;51.12;38918.66;5046236;28;20026;-67
2023/10/13 03:06:21;;;;;;;6.93;1.93;;;;;;;-145.63;51.20;39348.88;5046294;28;20017;-66
2023/10/13 03:08:47;;;;;;;7.60;1.90;;;;;;;-145.63;51.55;39380.19;5046137;28;20021;-67
2023/10/13 03:11:13;;;;;;;5.20;1.65;;;;;;;-145.63;51.46;39376.28;5046191;28;20356;-66
2023/10/13 03:13:44;;;;;;;7.25;1.80;;;;;;;-145.63;51.75;39348.88;5045901;28;20091;-66
2023/10/13 03:16:15;;;;;;;5.80;2.10;;;;;;;-145.63;51.48;39344.97;5045676;28;20022;-66
2023/10/13 03:19:07;;;;;;;8.65;1.98;;;;;;;-145.63;51.77;39192.44;5045725;28;20036;-67
2023/10/13 03:21:30;;;;;;;6.47;1.90;;;;;;;-145.63;51.39;39341.06;5045478;28;20060;-66
2023/10/13 03:24:04;;;;;;;9.48;2.17;;;;;;;-145.63;51.58;39348.88;5045542;28;20029;-67
2023/10/13 03:26:34;;;;;;;7.55;1.95;;;;;;;-145.63;51.40;39352.81;5045958;28;20317;-66
2023/10/13 03:29:03;;;;;;;9.23;4.43;;;;;;;-145.63;51.73;39380.19;5045646;28;20249;-65
2023/10/13 03:31:30;;;;;;;6.38;1.98;;;;;;;-145.63;52.04;39309.78;5045665;28;20025;-66
2023/10/13 03:34:01;;;;;;;7.63;1.90;;;;;;;-145.63;51.63;39374.31;5045458;28;20025;-66
2023/10/13 03:39:11;;;;;;;5.78;2.05;;;;;;;-145.63;51.77;39388.00;5045621;28;20039;-65
2023/10/13 03:41:39;;;;;;;5.90;2.03;;;;;;;-145.63;51.71;39358.66;5045549;28;20017;-64
2023/10/13 03:44:12;;;;;;;4.20;1.73;;;;;;;-145.63;51.31;39344.97;5044885;28;20025;-64
2023/10/13 03:46:40;;;;;;;6.10;2.05;;;;;;;-145.63;51.47;39378.22;5045412;28;20301;-66
2023/10/13 03:49:12;;;;;;;4.90;1.50;;;;;;;-145.63;51.43;39372.34;5045315;28;20029;-66
2023/10/13 03:51:39;;;;;;;6.50;1.95;;;;;;;-145.63;51.25;39380.19;5045065;28;20194;-66
2023/10/13 03:54:08;;;;;;;6.28;1.70;;;;;;;-145.63;51.22;39376.28;5045224;28;20029;-66
2023/10/13 03:56:40;;;;;;;5.25;1.75;;;;;;;-145.63;51.22;39374.31;5045331;28;20067;-65
2023/10/13 03:59:17;;;;;;;9.63;2.58;;;;;;;-145.63;50.95;39378.22;5045057;28;20022;-65
2023/10/13 04:01:49;;;;;;;7.85;1.80;;;;;;;-145.63;50.94;39358.66;5044926;28;20196;-66
2023/10/13 04:04:29;;;;;;;12.38;2.38;;;;;;;-145.63;51.14;39354.75;5045189;28;20035;-66
2023/10/13 04:07:13;;;;;;;4.03;1.60;;;;;;;-145.63;50.93;39364.53;5044772;28;20037;-66
2023/10/13 04:15:18;;;;;;;6.15;2.00;;;;;;;-145.63;50.74;39472.09;5011718;28;20136;-65
2023/10/13 04:17:45;;;;;;;9.85;2.67;;;;;;;-145.63;50.89;39386.06;5044702;28;20033;-66
2023/10/13 04:28:35;;;;;;;6.53;2.05;;;;;;;-145.63;50.62;39305.88;5011066;28;20044;-65
2023/10/13 04:31:55;;;;;;;7.00;1.92;;;;;;;-145.63;50.85;39380.19;5044370;28;20041;-65
2023/10/13 04:33:52;;;;;;;7.85;1.98;;;;;;;-145.63;51.35;39376.28;5032543;28;20225;-66
2023/10/13 04:41:57;;;;;;;9.38;2.53;;;;;;;-145.63;50.37;39368.44;5043846;28;20022;-66
2023/10/13 05:52:06;;;;;;;8.05;1.70;;;;;;;-145.63;48.98;39370.41;5042823;28;20049;-65
2023/10/13 06:30:14;;;;;;;6.43;1.92;;;;;;;-145.63;47.66;39372.34;5046633;28;20348;-66
2023/10/13 06:32:40;;;;;;;7.35;1.73;;;;;;;-145.63;47.24;39352.81;5046859;28;20041;-65
2023/10/13 06:35:28;;;;;;;8.43;1.60;;;;;;;-145.63;47.05;39388.00;5046611;28;20213;-66
2023/10/13 06:37:53;;;;;;;4.75;1.30;;;;;;;-145.63;46.06;39329.34;5046108;28;20197;-65
2023/10/13 06:43:12;;;;;;;6.13;1.73;;;;;;;-145.63;46.40;39352.81;5046648;28;20088;-65
2023/10/13 06:45:39;;;;;;;9.03;3.13;;;;;;;-145.63;46.58;39290.22;5046385;28;20317;-65
2023/10/13 06:48:05;;;;;;;11.02;4.25;;;;;;;-145.63;45.60;39343.03;5046211;28;20347;-65
2023/10/13 06:50:39;;;;;;;12.68;4.53;;;;;;;-145.63;45.06;39303.91;5046517;28;20033;-65
2023/10/13 06:53:05;;;;;;;5.22;1.42;;;;;;;-145.63;44.63;39362.59;5046690;28;20078;-66
2023/10/13 06:55:35;;;;;;;4.20;1.85;;;;;;;-145.63;44.84;39276.53;5046346;28;20033;-65
2023/10/13 06:58:01;;;;;;;6.18;2.35;;;;;;;-145.63;43.97;39255.00;5046161;28;20056;-65
2023/10/13 07:00:29;;;;;;;4.18;1.45;;;;;;;-145.63;44.00;39266.75;5046116;28;20021;-65
2023/10/13 07:05:51;;;;;;;3.80;1.20;;;;;;;-145.63;42.93;39255.00;5032917;28;20095;-65
2023/10/13 07:08:21;;;;;;;2.85;1.20;;;;;;;-145.63;43.45;39264.78;5045078;28;20037;-65
2023/10/13 07:11:05;;;;;;;5.10;1.50;;;;;;;-145.63;41.93;39270.66;5046199;28;20305;-64
2023/10/13 07:13:36;;;;;;;6.78;1.35;;;;;;;-145.63;41.81;39192.44;5045918;28;20032;-64
2023/10/13 07:16:12;;;;;;;4.85;1.65;;;;;;;-145.63;41.49;39305.88;5045803;28;20052;-66
2023/10/13 07:18:49;;;;;;;12.73;2.40;;;;;;;-145.63;41.58;39274.56;5045341;28;20084;-65
2023/10/13 07:21:16;;;;;;;5.03;1.30;;;;;;;-145.63;41.13;39294.13;5045743;28;20048;-64
2023/10/13 07:23:49;;;;;;;5.18;1.35;;;;;;;-145.63;41.50;39292.19;5045682;28;20025;-65
2023/10/13 07:26:15;;;;;;;7.63;4.78;;;;;;;-145.63;40.38;39323.47;5045417;28;20029;-65
2023/10/13 07:28:43;;;;;;;4.25;1.52;;;;;;;-145.63;41.43;39288.25;5045731;28;20028;-65
2023/10/13 07:31:14;;;;;;;5.65;1.30;;;;;;;-145.63;40.70;39280.44;5045695;28;20025;-65
2023/10/13 07:33:41;;;;;;;43.78;4.28;;;;;;;-145.63;41.32;39315.66;5045566;28;20032;-65
2023/10/13 07:36:24;;;;;;;5.05;1.50;;;;;;;-145.63;41.28;39260.88;5045469;28;20036;-65
2023/10/13 07:39:02;;;;;;;3.35;1.02;;;;;;;-145.63;40.98;39305.88;5045624;28;20348;-64
2023/10/13 07:41:30;;;;;;;7.05;1.17;;;;;;;-145.63;40.52;39303.91;5045408;28;20040;-65
2023/10/13 07:43:59;;;;;;;4.32;1.10;;;;;;;-145.63;41.69;39301.94;5045125;28;20043;-65
2023/10/13 07:46:31;;;;;;;4.10;1.38;;;;;;;-145.63;40.09;39360.63;5045049;28;20041;-65
2023/10/13 07:49:08;;;;;;;3.47;1.25;;;;;;;-145.63;39.85;39339.13;5045174;28;20025;-66
2023/10/13 07:51:44;;;;;;;2.40;1.38;;;;;;;-145.63;41.18;39348.88;5044853;28;20065;-66
2023/10/13 07:54:21;;;;;;;5.00;1.63;;;;;;;-145.63;40.23;39290.22;5060552;28;20076;-64
2023/10/13 07:56:48;;;;;;;5.45;1.33;;;;;;;-145.63;40.50;39290.22;5045194;28;20025;-65
2023/10/13 07:59:16;;;;;;;2.85;1.00;;;;;;;-145.63;41.04;39309.78;5045249;28;20033;-65
2023/10/13 08:01:42;;;;;;;3.58;1.20;;;;;;;-145.63;40.83;39268.72;5044828;28;20313;-65
2023/10/13 08:04:12;;;;;;;3.10;1.35;;;;;;;-145.63;40.16;38660.53;5044746;28;20095;-65
2023/10/13 08:06:43;;;;;;;3.08;1.30;;;;;;;-145.63;39.36;39323.47;5043144;28;20030;-65
2023/10/13 08:09:09;;;;;;;4.60;1.30;;;;;;;-145.63;38.99;39225.69;5044383;28;20029;-64
2023/10/13 08:11:39;;;;;;;5.40;1.77;;;;;;;-145.63;38.44;39354.75;5044726;28;20088;-64
2023/10/13 08:14:17;;;;;;;3.20;0.98;;;;;;;-145.63;39.27;39278.47;5044591;28;20316;-64
2023/10/13 08:16:52;;;;;;;3.05;1.30;;;;;;;-145.63;38.89;39294.13;5044246;28;20045;-65
2023/10/13 08:27:34;;;;;;;4.00;1.40;;;;;;;-145.63;39.14;39305.88;5044794;28;20037;-66
2023/10/13 08:45:58;;;;;;;3.47;1.13;;;;;;;-145.63;36.63;39278.47;5044187;28;20026;-66
2023/10/13 08:56:15;;;;;;;4.97;1.30;;;;;;;-145.63;33.96;39106.38;5043841;28;20037;-65
2023/10/13 09:04:22;;;;;;;2.60;1.20;;;;;;;-145.63;34.54;39149.41;5043876;28;20096;-65
2023/10/13 09:07:09;;;;;;;1.92;1.15;;;;;;;-145.63;35.27;39200.25;5042541;28;20028;-65
2023/10/13 09:12:19;;;;;;;4.47;1.38;;;;;;;-145.63;34.92;39223.72;5043424;28;20069;-65
2023/10/13 09:14:58;;;;;;;4.10;1.35;;;;;;;-145.63;34.69;39178.75;5043483;28;20087;-64
2023/10/13 09:17:35;;;;;;;3.35;1.10;;;;;;;-145.63;33.91;39196.34;5043327;28;20323;-66
2023/10/13 09:23:45;;;;;;;4.88;1.48;;;;;;;-145.63;33.30;39159.19;5043328;28;20073;-65
2023/10/13 09:25:57;;;;;;;3.90;1.15;;;;;;;-145.63;33.08;39172.88;5028497;28;20034;-66
2023/10/13 09:28:25;;;;;;;3.40;1.20;;;;;;;-145.63;32.55;39190.47;5043574;28;20067;-67
2023/10/13 09:30:53;;;;;;;2.20;0.90;;;;;;;-145.63;32.34;39178.75;5043539;28;20048;-68
2023/10/13 09:33:33;;;;;;;5.38;1.30;;;;;;;-145.63;33.41;39212.00;5043563;28;20029;-67
2023/10/13 09:36:00;;;;;;;4.47;1.27;;;;;;;-145.63;33.33;39212.00;5043046;28;20029;-68
2023/10/13 09:38:27;;;;;;;2.80;1.42;;;;;;;-145.63;33.83;39188.53;5043616;28;20047;-68
2023/10/13 09:40:57;;;;;;;3.47;1.00;;;;;;;-145.63;33.96;39194.38;5042909;28;20053;-67
2023/10/13 09:43:25;;;;;;;5.28;1.40;;;;;;;-145.63;33.99;39208.06;5043441;28;20027;-68
2023/10/13 09:46:15;;;;;;;1.75;0.93;;;;;;;-145.63;33.34;39210.03;5043055;28;20056;-67
2023/10/13 09:49:04;;;;;;;5.13;1.40;;;;;;;-145.63;33.64;39188.53;5043217;28;20037;-67
2023/10/13 09:51:31;;;;;;;2.90;1.02;;;;;;;-145.63;32.77;39233.50;5043108;28;20029;-67
2023/10/13 09:54:09;;;;;;;5.93;1.77;;;;;;;-145.63;33.17;39215.91;5042295;28;20095;-66
2023/10/13 09:56:51;;;;;;;2.53;1.10;;;;;;;-145.63;32.95;39255.00;5033412;28;20029;-66
2023/10/13 09:59:34;;;;;;;1.90;1.30;;;;;;;-145.63;34.44;39049.66;5023137;28;20039;-64
2023/10/13 10:02:08;;;;;;;;;;;;;;;-145.63;33.73;39196.34;5023378;28;20033;-65
2023/10/13 10:04:42;;;;;;;3.90;1.63;;;;;;;-145.63;33.94;39213.94;5040727;28;19913;-66
2023/10/13 10:07:08;;;;;;;5.95;1.20;;;;;;;-145.63;32.36;39239.38;5042234;28;20038;-64
2023/10/13 10:09:34;;;;;;;2.70;1.00;;;;;;;-145.63;32.27;39241.31;5035488;28;20045;-66
2023/10/13 10:12:18;;;;;;;4.18;1.40;;;;;;;-145.63;32.44;39184.59;5033727;28;20132;-64
2023/10/13 10:14:56;;;;;;;2.42;1.02;;;;;;;-145.63;33.20;39227.63;5041412;28;20136;-64
2023/10/13 10:17:22;;;;;;;3.08;1.20;;;;;;;-145.63;32.73;39278.47;5042609;28;20119;-64
2023/10/13 10:19:53;;;;;;;2.97;1.33;;;;;;;-145.63;32.16;39172.88;5042405;28;20032;-64
2023/10/13 10:22:33;;;;;;;2.92;1.40;;;;;;;-145.63;33.80;39168.97;5042179;28;20091;-65
2023/10/13 10:25:02;;;;;;;3.30;1.30;;;;;;;-145.63;32.49;39198.31;5042120;28;20356;-65
2023/10/13 10:27:32;;;;;;;;;;;;;;;-145.63;32.36;39237.41;5043639;28;20029;-65
2023/10/13 10:29:58;;;;;;;2.40;1.17;;;;;;;-145.63;32.27;39204.16;5042707;28;19905;-64
2023/10/13 10:32:37;;;;;;;4.90;1.30;;;;;;;-145.63;32.30;39186.56;5042669;28;20341;-65
2023/10/13 10:35:07;;;;;;;3.70;1.20;;;;;;;-145.63;33.19;39225.69;5042518;28;20339;-66
2023/10/13 10:37:34;;;;;;;6.45;1.23;;;;;;;-145.63;32.15;39215.91;5042715;28;20052;-65
2023/10/13 10:40:05;;;;;;;3.03;1.42;;;;;;;-145.63;33.25;39241.31;5041067;28;20309;-64
2023/10/13 10:42:31;;;;;;;1.70;1.02;;;;;;;-145.63;32.43;39198.31;5042567;28;20132;-65
2023/10/13 10:45:05;;;;;;;3.55;1.30;;;;;;;-145.63;33.00;39270.66;5042577;28;20092;-66
2023/10/13 10:47:31;;;;;;;1.30;1.00;;;;;;;-145.63;32.72;39190.47;5041626;28;20093;-66
2023/10/13 10:50:07;;;;;;;4.05;0.90;;;;;;;-145.63;31.96;39215.91;5042254;28;20021;-64
2023/10/13 10:52:37;;;;;;;4.93;1.05;;;;;;;-145.63;32.11;39241.31;5042523;28;20043;-65
2023/10/13 10:55:13;;;;;;;1.20;1.10;;;;;;;-145.63;32.36;39276.53;5044798;28;20029;-65
2023/10/13 10:57:43;;;;;;;4.32;1.67;;;;;;;-145.63;32.09;39227.63;5046424;28;20041;-65
2023/10/13 11:00:19;;;;;;;3.95;1.40;;;;;;;-145.63;32.76;39258.94;5045223;28;20037;-66
2023/10/13 11:02:58;;;;;;;5.43;1.13;;;;;;;-145.63;32.51;39270.66;5045941;28;20076;-65
2023/10/13 11:05:32;;;;;;;4.22;1.10;;;;;;;-145.63;33.40;39215.91;5046326;28;20029;-66
2023/10/13 11:07:58;;;;;;;1.77;1.10;;;;;;;-145.63;32.69;39268.72;5045828;28;20029;-65
2023/10/13 11:10:27;;;;;;;3.28;0.90;;;;;;;-145.63;31.79;38965.56;5045848;28;20040;-67
2023/10/13 11:13:15;;;;;;;3.35;1.05;;;;;;;-145.63;32.27;39227.63;5045855;28;20029;-65
2023/10/13 11:15:44;;;;;;;1.20;0.98;;;;;;;-145.63;31.68;39221.78;5045979;28;20028;-66
2023/10/13 11:18:16;;;;;;;1.25;0.80;;;;;;;-145.63;32.23;39243.28;5045528;28;20052;-65
2023/10/13 11:20:46;;;;;;;2.50;0.77;;;;;;;-145.63;31.93;39397.78;5046044;28;20334;-64
2023/10/13 11:23:13;;;;;;;1.52;0.90;;;;;;;-145.63;31.96;39196.34;5045504;28;20025;-65
2023/10/13 11:25:39;;;;;;;5.18;1.10;;;;;;;-145.63;33.00;39237.41;5045867;28;20033;-65
2023/10/13 11:28:27;;;;;;;2.53;1.15;;;;;;;-145.63;32.23;39282.41;5045410;28;20033;-66
2023/10/13 11:30:58;;;;;;;2.50;1.20;;;;;;;-145.63;31.74;39301.94;5045721;28;20229;-66
2023/10/13 11:33:28;;;;;;;2.27;0.93;;;;;;;-145.63;32.56;39213.94;5045465;28;20048;-67
2023/10/13 11:35:57;;;;;;;2.10;0.85;;;;;;;-145.63;30.86;39225.69;5060919;28;20032;-66
2023/10/13 11:38:29;;;;;;;1.35;1.00;;;;;;;-145.63;31.89;39233.50;5045324;28;20059;-66
2023/10/13 11:48:39;;;;;;;3.08;1.00;;;;;;;-145.63;31.14;39231.53;5045426;28;20021;-65
2023/10/13 11:51:07;;;;;;;2.10;1.00;;;;;;;-145.63;31.23;39241.31;5045047;28;20056;-66
2023/10/13 11:53:36;;;;;;;3.28;1.13;;;;;;;-145.63;31.00;39253.06;5045163;28;20060;-65
2023/10/13 11:56:09;;;;;;;2.40;0.93;;;;;;;-145.63;30.86;39247.19;5044482;28;20056;-64
2023/10/13 11:58:39;;;;;;;2.95;1.05;;;;;;;-145.63;30.72;39260.88;5045351;28;20104;-66
2023/10/13 12:11:41;;;;;;;3.20;0.82;;;;;;;-145.63;30.30;39268.72;5043869;28;20357;-66
2023/10/13 12:14:19;;;;;;;4.10;1.30;;;;;;;-145.63;30.91;39270.66;5044202;28;20029;-66
2023/10/13 12:16:51;;;;;;;5.63;1.52;;;;;;;-145.63;31.27;39268.72;5025099;28;20178;-66
2023/10/13 12:19:23;;;;;;;1.65;0.80;;;;;;;-145.63;31.72;39237.41;5025010;28;20038;-66
2023/10/13 12:21:49;;;;;;;3.33;1.10;;;;;;;-145.63;31.63;39258.94;5023497;28;20193;-66
2023/10/13 12:24:39;;;;;;;6.13;1.23;;;;;;;-145.63;31.33;39262.84;5028701;28;20036;-66
2023/10/13 12:27:19;;;;;;;2.03;1.05;;;;;;;-145.63;30.87;39249.16;5044396;28;20028;-66
2023/10/13 12:29:51;;;;;;;3.05;0.90;;;;;;;-145.63;30.92;39268.72;5044346;28;20033;-67
2023/10/13 12:32:23;;;;;;;4.55;1.40;;;;;;;-145.63;30.70;39313.69;5043976;28;20049;-67
2023/10/13 12:51:21;;;;;;;3.92;1.45;;;;;;;-145.63;31.52;39294.13;5043959;28;20414;-67
2023/10/13 12:53:51;;;;;;;2.00;1.20;;;;;;;-145.63;31.07;39278.47;5043749;28;20064;-68
2023/10/13 12:56:25;;;;;;;1.65;1.25;;;;;;;-145.63;31.06;39270.66;5043680;28;20089;-68
2023/10/13 12:58:55;;;;;;;3.15;1.52;;;;;;;-145.63;31.39;39262.84;5043828;28;20075;-67
2023/10/13 13:01:32;;;;;;;7.03;1.73;;;;;;;-145.63;31.76;39249.16;5043585;28;20032;-67
2023/10/13 13:03:59;;;;;;;5.57;1.65;;;;;;;-145.63;31.78;39305.88;5043726;28;20080;-68
2023/10/13 13:06:26;;;;;;;1.75;1.25;;;;;;;-145.63;31.14;38640.97;5043524;28;20028;-69
2023/10/13 13:08:56;;;;;;;5.53;1.65;;;;;;;-145.63;31.21;39278.47;5043469;28;20029;-67
2023/10/13 13:11:23;;;;;;;6.25;1.70;;;;;;;-145.63;32.22;39231.53;5043885;28;20049;-69
2023/10/13 13:13:48;;;;;;;8.40;1.52;;;;;;;-145.63;31.02;39278.47;5043815;28;20040;-69
2023/10/13 13:16:15;;;;;;;4.93;1.60;;;;;;;-145.63;32.16;39272.63;5043511;28;20025;-68
2023/10/13 13:18:43;;;;;;;4.50;1.80;;;;;;;-145.63;31.90;39258.94;5043449;28;20048;-68
2023/10/13 13:21:11;;;;;;;7.25;1.67;;;;;;;-145.63;32.94;39270.66;5043299;28;20091;-69
2023/10/13 13:23:39;;;;;;;2.85;1.13;;;;;;;-145.63;32.32;39284.34;5043460;28;20090;-67
2023/10/13 13:26:15;;;;;;;4.00;1.45;;;;;;;-145.63;31.70;39251.09;5043013;28;20210;-69
2023/10/13 13:28:50;;;;;;;3.08;1.67;;;;;;;-145.63;31.32;39286.31;5043643;28;20040;-68
2023/10/13 13:31:18;;;;;;;6.07;1.48;;;;;;;-145.63;31.52;39278.47;5043230;28;20026;-68
2023/10/13 13:33:44;;;;;;;4.72;1.40;;;;;;;-145.63;31.83;39290.22;5042156;28;20298;-70
2023/10/13 13:36:15;;;;;;;5.72;1.60;;;;;;;-145.63;32.49;39278.47;5042812;28;20034;-68
2023/10/13 13:38:45;;;;;;;1.85;1.17;;;;;;;-145.63;32.04;39268.72;5043158;28;20049;-69
2023/10/13 13:41:16;;;;;;;6.28;1.70;;;;;;;-145.63;31.96;39313.69;5022980;28;20041;-68
2023/10/13 13:43:55;;;;;;;4.53;1.48;;;;;;;-145.63;32.25;39286.31;5023588;28;20137;-68
2023/10/13 13:46:24;;;;;;;3.67;1.35;;;;;;;-145.63;32.43;39251.09;5022117;28;20057;-69
2023/10/13 13:49:00;;;;;;;4.90;1.35;;;;;;;-145.63;32.92;39303.91;5038520;28;20040;-67
2023/10/13 13:51:28;;;;;;;5.55;1.60;;;;;;;-145.63;33.10;39284.34;5023166;28;20036;-68
2023/10/13 13:53:55;;;;;;;2.85;1.40;;;;;;;-145.63;33.09;39303.91;5023189;28;20261;-68
2023/10/13 13:56:21;;;;;;;6.90;1.70;;;;;;;-145.63;33.55;39260.88;5042990;28;20147;-68
2023/10/13 13:58:50;;;;;;;4.32;1.38;;;;;;;-145.63;33.01;39290.22;5042862;28;20026;-68
2023/10/13 14:01:18;;;;;;;7.15;2.03;;;;;;;-145.63;33.56;39284.34;5041839;28;20047;-68
2023/10/13 14:03:46;;;;;;;6.10;1.77;;;;;;;-145.63;33.93;39268.72;5042598;28;20025;-68
2023/10/13 14:06:26;;;;;;;7.50;1.85;;;;;;;-145.63;33.51;39272.63;5042570;28;20197;-68
2023/10/13 14:08:54;;;;;;;4.13;1.77;;;;;;;-145.63;33.47;39354.75;5042455;28;20034;-67
2023/10/13 14:11:54;;;;;;;3.78;1.85;;;;;;;-145.63;34.46;39278.47;5043054;28;20018;-67
2023/10/13 14:14:28;;;;;;;4.47;2.00;;;;;;;-145.63;34.48;39290.22;5041960;28;20036;-67
2023/10/13 14:17:06;;;;;;;7.85;2.40;;;;;;;-145.63;34.03;39278.47;5042633;28;20032;-67
2023/10/13 14:19:33;;;;;;;2.80;1.50;;;;;;;-145.63;33.95;39288.25;5042632;28;20298;-67
2023/10/13 14:22:05;;;;;;;3.97;1.80;;;;;;;-145.63;33.91;39292.19;5042387;28;20265;-67
2023/10/13 14:24:34;;;;;;;5.50;1.75;;;;;;;-145.63;34.22;39290.22;5042240;28;20284;-67
2023/10/13 14:27:12;;;;;;;5.15;2.10;;;;;;;-145.63;33.32;39282.41;5043040;28;20032;-67
2023/10/13 14:29:42;;;;;;;4.63;1.90;;;;;;;-145.63;34.32;39303.91;5046708;28;20438;-67
2023/10/13 14:32:27;;;;;;;6.90;2.17;;;;;;;-145.63;34.25;39309.78;5046005;28;20040;-66
2023/10/13 14:34:56;;;;;;;5.10;1.70;;;;;;;-145.63;34.37;39294.13;5046353;28;20029;-67
2023/10/13 14:37:32;;;;;;;5.30;2.10;;;;;;;-145.63;34.02;39303.91;5046122;28;20025;-68
2023/10/13 14:39:59;;;;;;;3.83;1.73;;;;;;;-145.63;33.94;39280.44;5045609;28;20025;-68
2023/10/13 14:42:26;;;;;;;4.15;1.73;;;;;;;-145.63;34.16;39270.66;5046185;28;20315;-66
2023/10/13 14:44:58;;;;;;;6.95;2.22;;;;;;;-145.63;35.14;39233.50;5045956;28;20072;-66
2023/10/13 14:47:25;;;;;;;7.38;1.90;;;;;;;-145.63;34.57;39309.78;5046317;28;20033;-67
2023/10/13 14:49:54;;;;;;;4.80;2.15;;;;;;;-145.63;34.44;39288.25;5045976;28;20026;-67
2023/10/13 14:52:23;;;;;;;6.47;1.98;;;;;;;-145.63;35.24;39313.69;5046168;28;20132;-67
2023/10/13 14:54:54;;;;;;;7.18;2.28;;;;;;;-145.63;35.55;39313.69;5028079;28;20257;-67
2023/10/13 14:57:24;;;;;;;4.70;2.05;;;;;;;-145.63;34.47;39350.84;5045833;28;20239;-68
2023/10/13 14:59:52;;;;;;;4.43;1.85;;;;;;;-145.63;34.45;39301.94;5045778;28;20245;-67
2023/10/13 15:02:17;;;;;;;5.47;1.80;;;;;;;-145.63;35.38;39329.34;5045882;28;20029;-68
2023/10/13 15:04:43;;;;;;;5.45;1.63;;;;;;;-145.63;35.37;39319.56;5045882;28;20053;-67
2023/10/13 15:07:09;;;;;;;10.05;2.35;;;;;;;-145.63;35.25;39288.25;5044569;28;20233;-66
2023/10/13 15:09:34;;;;;;;7.03;1.75;;;;;;;-145.63;35.95;39284.34;5045201;28;20039;-67
2023/10/13 15:12:05;;;;;;;3.35;1.98;;;;;;;-145.63;35.16;39370.41;5045393;28;20033;-68
2023/10/13 15:14:33;;;;;;;4.93;1.90;;;;;;;-145.63;35.68;39298.03;5045643;28;20064;-66
2023/10/13 15:17:00;;;;;;;6.13;1.92;;;;;;;-145.63;35.08;39315.66;5044282;28;20252;-68
2023/10/13 15:19:28;;;;;;;4.88;2.13;;;;;;;-145.63;35.71;39319.56;5045311;28;20041;-68
2023/10/13 15:21:55;;;;;;;4.70;2.15;;;;;;;-145.63;36.00;39256.97;5045454;28;20089;-68